sensor_id;sensor_type;location;lat;lon;timestamp;pressure;altitude;pressure_sealevel;temperature;humidity
47670;BME280;33408;52.062;11.722;2023-03-26T00:00:12;99965.63;;;8.15;100.00
47670;BME280;33408;52.062;11.722;2023-03-26T00:02:39;99969.81;;;8.21;100.00
47670;BME280;33408;52.062;11.722;2023-03-26T00:05:07;99971.56;;;8.19;100.00
47670;BME280;33408;52.062;11.722;2023-03-26T00:07:34;99975.88;;;8.20;100.00
47670;BME280;33408;52.062;11.722;2023-03-26T00:10:01;99982.81;;;8.18;100.00
47670;BME280;33408;52.062;11.722;2023-03-26T00:12:29;99986.16;;;8.21;100.00
47670;BME280;33408;52.062;11.722;2023-03-26T00:14:57;99985.28;;;8.21;100.00
47670;BME280;33408;52.062;11.722;2023-03-26T00:17:24;99987.00;;;8.22;100.00
47670;BME280;33408;52.062;11.722;2023-03-26T00:19:50;99985.38;;;8.18;100.00
47670;BME280;33408;52.062;11.722;2023-03-26T00:22:18;99988.75;;;8.21;100.00
47670;BME280;33408;52.062;11.722;2023-03-26T00:24:44;99986.16;;;8.21;100.00
47670;BME280;33408;52.062;11.722;2023-03-26T00:27:13;99991.31;;;8.21;100.00
47670;BME280;33408;52.062;11.722;2023-03-26T00:29:41;99993.03;;;8.21;100.00
47670;BME280;33408;52.062;11.722;2023-03-26T00:32:08;99995.63;;;8.21;100.00
47670;BME280;33408;52.062;11.722;2023-03-26T00:34:34;99997.31;;;8.24;100.00
47670;BME280;33408;52.062;11.722;2023-03-26T00:37:01;99991.31;;;8.21;100.00
47670;BME280;33408;52.062;11.722;2023-03-26T00:39:28;99991.72;;;8.01;100.00
47670;BME280;33408;52.062;11.722;2023-03-26T00:41:57;99995.31;;;7.94;100.00
47670;BME280;33408;52.062;11.722;2023-03-26T00:44:24;100005.84;;;7.82;100.00
47670;BME280;33408;52.062;11.722;2023-03-26T00:46:52;100005.00;;;7.83;100.00
47670;BME280;33408;52.062;11.722;2023-03-26T00:49:19;100002.38;;;7.84;100.00
47670;BME280;33408;52.062;11.722;2023-03-26T00:51:45;100004.94;;;7.86;100.00
47670;BME280;33408;52.062;11.722;2023-03-26T00:54:12;100002.34;;;7.86;100.00
47670;BME280;33408;52.062;11.722;2023-03-26T00:56:38;100005.88;;;7.80;100.00
47670;BME280;33408;52.062;11.722;2023-03-26T00:59:05;99989.47;;;7.84;100.00
47670;BME280;33408;52.062;11.722;2023-03-26T01:01:33;99990.34;;;7.83;100.00
47670;BME280;33408;52.062;11.722;2023-03-26T01:04:23;99997.28;;;7.81;100.00
47670;BME280;33408;52.062;11.722;2023-03-26T01:06:52;99992.97;;;7.82;100.00
47670;BME280;33408;52.062;11.722;2023-03-26T01:09:21;99996.50;;;7.78;100.00
47670;BME280;33408;52.062;11.722;2023-03-26T01:11:49;100002.59;;;7.72;100.00
47670;BME280;33408;52.062;11.722;2023-03-26T01:14:18;100000.75;;;7.79;100.00
47670;BME280;33408;52.062;11.722;2023-03-26T01:16:48;100001.72;;;7.75;100.00
47670;BME280;33408;52.062;11.722;2023-03-26T01:19:20;100005.13;;;7.75;100.00
47670;BME280;33408;52.062;11.722;2023-03-26T01:21:51;100010.13;;;7.84;100.00
47670;BME280;33408;52.062;11.722;2023-03-26T01:24:19;100011.03;;;7.80;100.00
47670;BME280;33408;52.062;11.722;2023-03-26T01:26:57;100009.19;;;7.87;100.00
47670;BME280;33408;52.062;11.722;2023-03-26T01:29:30;100007.59;;;7.81;100.00
47670;BME280;33408;52.062;11.722;2023-03-26T01:32:04;100004.94;;;7.86;100.00
47670;BME280;33408;52.062;11.722;2023-03-26T01:34:43;100011.03;;;7.80;100.00
47670;BME280;33408;52.062;11.722;2023-03-26T01:37:19;100012.75;;;7.81;100.00
47670;BME280;33408;52.062;11.722;2023-03-26T01:39:55;100015.25;;;7.86;100.00
47670;BME280;33408;52.062;11.722;2023-03-26T01:42:31;100017.84;;;7.86;100.00
47670;BME280;33408;52.062;11.722;2023-03-26T01:45:02;100013.53;;;7.85;100.00
47670;BME280;33408;52.062;11.722;2023-03-26T01:47:33;100011.91;;;7.81;100.00
47670;BME280;33408;52.062;11.722;2023-03-26T01:50:01;100018.72;;;7.85;100.00
47670;BME280;33408;52.062;11.722;2023-03-26T01:52:27;100013.59;;;7.82;100.00
47670;BME280;33408;52.062;11.722;2023-03-26T01:54:57;100022.97;;;7.88;100.00
47670;BME280;33408;52.062;11.722;2023-03-26T01:57:32;100017.84;;;7.86;100.00
47670;BME280;33408;52.062;11.722;2023-03-26T02:00:15;100016.88;;;7.90;100.00
47670;BME280;33408;52.062;11.722;2023-03-26T02:02:55;100011.75;;;7.89;100.00
47670;BME280;33408;52.062;11.722;2023-03-26T02:05:26;100011.72;;;7.90;100.00
47670;BME280;33408;52.062;11.722;2023-03-26T02:07:59;100019.53;;;7.85;100.00
47670;BME280;33408;52.062;11.722;2023-03-26T02:10:33;100022.97;;;7.88;100.00
47670;BME280;33408;52.062;11.722;2023-03-26T02:13:00;100018.75;;;7.82;100.00
47670;BME280;33408;52.062;11.722;2023-03-26T02:15:27;100021.28;;;7.85;100.00
47670;BME280;33408;52.062;11.722;2023-03-26T02:17:54;100015.25;;;7.86;100.00
47670;BME280;33408;52.062;11.722;2023-03-26T02:20:24;100017.97;;;7.78;100.00
47670;BME280;33408;52.062;11.722;2023-03-26T02:22:54;100022.94;;;7.89;100.00
47670;BME280;33408;52.062;11.722;2023-03-26T02:25:21;100025.59;;;7.84;100.00
47670;BME280;33408;52.062;11.722;2023-03-26T02:27:51;100029.16;;;7.77;100.00
47670;BME280;33408;52.062;11.722;2023-03-26T02:30:21;100028.44;;;7.71;100.00
47670;BME280;33408;52.062;11.722;2023-03-26T02:32:50;100030.94;;;7.74;100.00
47670;BME280;33408;52.062;11.722;2023-03-26T02:35:18;100029.22;;;7.74;100.00
47670;BME280;33408;52.062;11.722;2023-03-26T02:37:45;100028.47;;;7.67;100.00
47670;BME280;33408;52.062;11.722;2023-03-26T02:40:16;100039.56;;;7.73;100.00
47670;BME280;33408;52.062;11.722;2023-03-26T02:42:42;100038.69;;;7.74;100.00
47670;BME280;33408;52.062;11.722;2023-03-26T02:45:11;100038.03;;;7.62;100.00
47670;BME280;33408;52.062;11.722;2023-03-26T02:47:37;100033.66;;;7.66;100.00
47670;BME280;33408;52.062;11.722;2023-03-26T02:50:05;100038.84;;;7.64;100.00
47670;BME280;33408;52.062;11.722;2023-03-26T02:52:33;100038.81;;;7.66;100.00
47670;BME280;33408;52.062;11.722;2023-03-26T02:55:00;100052.53;;;7.70;100.00
47670;BME280;33408;52.062;11.722;2023-03-26T02:57:27;100050.84;;;7.67;100.00
47670;BME280;33408;52.062;11.722;2023-03-26T02:59:53;100048.25;;;7.69;100.00
47670;BME280;33408;52.062;11.722;2023-03-26T03:02:21;100050.00;;;7.66;100.00
47670;BME280;33408;52.062;11.722;2023-03-26T03:04:48;100050.72;;;7.75;100.00
47670;BME280;33408;52.062;11.722;2023-03-26T03:07:15;100048.16;;;7.75;100.00
47670;BME280;33408;52.062;11.722;2023-03-26T03:09:42;100051.47;;;7.81;100.00
47670;BME280;33408;52.062;11.722;2023-03-26T03:12:08;100048.94;;;7.78;100.00
47670;BME280;33408;52.062;11.722;2023-03-26T03:14:35;100045.56;;;7.75;100.00
47670;BME280;33408;52.062;11.722;2023-03-26T03:17:02;100037.19;;;7.62;100.00
47670;BME280;33408;52.062;11.722;2023-03-26T03:19:30;100031.97;;;7.65;100.00
47670;BME280;33408;52.062;11.722;2023-03-26T03:21:56;100042.31;;;7.65;100.00
47670;BME280;33408;52.062;11.722;2023-03-26T03:24:23;100036.25;;;7.66;100.00
47670;BME280;33408;52.062;11.722;2023-03-26T03:26:51;100029.38;;;7.66;100.00
47670;BME280;33408;52.062;11.722;2023-03-26T03:29:22;100031.09;;;7.64;100.00
47670;BME280;33408;52.062;11.722;2023-03-26T03:31:49;100027.63;;;7.69;100.00
47670;BME280;33408;52.062;11.722;2023-03-26T03:34:15;100028.47;;;7.67;100.00
47670;BME280;33408;52.062;11.722;2023-03-26T03:36:43;100021.56;;;7.71;100.00
47670;BME280;33408;52.062;11.722;2023-03-26T03:39:13;100028.56;;;7.63;100.00
47670;BME280;33408;52.062;11.722;2023-03-26T03:41:39;100022.53;;;7.64;100.00
47670;BME280;33408;52.062;11.722;2023-03-26T03:44:06;100025.88;;;7.69;100.00
47670;BME280;33408;52.062;11.722;2023-03-26T03:46:33;100026.88;;;7.62;100.00
47670;BME280;33408;52.062;11.722;2023-03-26T03:48:59;100026.91;;;7.60;100.00
47670;BME280;33408;52.062;11.722;2023-03-26T03:51:26;100027.81;;;7.56;100.00
47670;BME280;33408;52.062;11.722;2023-03-26T03:53:54;100027.06;;;7.49;100.00
47670;BME280;33408;52.062;11.722;2023-03-26T03:56:20;100031.50;;;7.43;100.00
47670;BME280;33408;52.062;11.722;2023-03-26T03:58:48;100030.69;;;7.41;100.00
47670;BME280;33408;52.062;11.722;2023-03-26T04:01:15;100038.47;;;7.36;100.00
47670;BME280;33408;52.062;11.722;2023-03-26T04:03:43;100023.16;;;7.27;100.00
47670;BME280;33408;52.062;11.722;2023-03-26T04:06:11;100025.00;;;7.20;100.00
47670;BME280;33408;52.062;11.722;2023-03-26T04:08:37;100031.00;;;7.19;100.00
47670;BME280;33408;52.062;11.722;2023-03-26T04:11:06;100025.91;;;7.16;100.00
47670;BME280;33408;52.062;11.722;2023-03-26T04:13:32;100026.84;;;7.12;100.00
47670;BME280;33408;52.062;11.722;2023-03-26T04:15:59;100021.59;;;7.18;100.00
47670;BME280;33408;52.062;11.722;2023-03-26T04:18:25;100026.81;;;7.14;100.00
47670;BME280;33408;52.062;11.722;2023-03-26T04:20:53;100025.91;;;7.15;100.00
47670;BME280;33408;52.062;11.722;2023-03-26T04:23:20;100031.28;;;7.02;100.00
47670;BME280;33408;52.062;11.722;2023-03-26T04:25:49;100025.38;;;6.96;100.00
47670;BME280;33408;52.062;11.722;2023-03-26T04:28:26;100028.78;;;6.98;100.00
47670;BME280;33408;52.062;11.722;2023-03-26T04:30:55;100023.63;;;6.96;100.00
47670;BME280;33408;52.062;11.722;2023-03-26T04:33:25;100029.56;;;7.01;100.00
47670;BME280;33408;52.062;11.722;2023-03-26T04:35:53;100032.31;;;6.90;100.00
47670;BME280;33408;52.062;11.722;2023-03-26T04:38:21;100039.16;;;6.91;100.00
47670;BME280;33408;52.062;11.722;2023-03-26T04:40:48;100029.75;;;6.87;100.00
47670;BME280;33408;52.062;11.722;2023-03-26T04:43:15;100036.59;;;6.90;100.00
47670;BME280;33408;52.062;11.722;2023-03-26T04:45:44;100031.53;;;6.84;100.00
47670;BME280;33408;52.062;11.722;2023-03-26T04:48:12;100024.03;;;6.68;100.00
47670;BME280;33408;52.062;11.722;2023-03-26T04:50:40;100023.09;;;6.74;100.00
47670;BME280;33408;52.062;11.722;2023-03-26T04:53:08;100033.47;;;6.69;100.00
47670;BME280;33408;52.062;11.722;2023-03-26T04:55:41;100037.75;;;6.70;100.00
47670;BME280;33408;52.062;11.722;2023-03-26T04:58:10;100035.13;;;6.75;100.00
47670;BME280;33408;52.062;11.722;2023-03-26T05:00:38;100034.38;;;6.67;100.00
47670;BME280;33408;52.062;11.722;2023-03-26T05:03:09;100031.78;;;6.67;100.00
47670;BME280;33408;52.062;11.722;2023-03-26T05:05:37;100027.50;;;6.66;100.00
47670;BME280;33408;52.062;11.722;2023-03-26T05:08:05;100033.47;;;6.69;100.00
47670;BME280;33408;52.062;11.722;2023-03-26T05:10:31;100028.41;;;6.62;100.00
47670;BME280;33408;52.062;11.722;2023-03-26T05:12:58;100038.66;;;6.66;100.00
47670;BME280;33408;52.062;11.722;2023-03-26T05:15:25;100027.63;;;6.56;100.00
47670;BME280;33408;52.062;11.722;2023-03-26T05:17:51;100033.66;;;6.55;100.00
47670;BME280;33408;52.062;11.722;2023-03-26T05:20:22;100036.31;;;6.49;100.00
47670;BME280;33408;52.062;11.722;2023-03-26T05:22:50;100032.00;;;6.50;100.00
47670;BME280;33408;52.062;11.722;2023-03-26T05:25:18;100033.75;;;6.49;100.00
47670;BME280;33408;52.062;11.722;2023-03-26T05:27:45;100039.63;;;6.57;100.00
47670;BME280;33408;52.062;11.722;2023-03-26T05:30:13;100044.06;;;6.46;100.00
47670;BME280;33408;52.062;11.722;2023-03-26T05:32:40;100052.63;;;6.47;100.00
47670;BME280;33408;52.062;11.722;2023-03-26T05:35:07;100037.94;;;6.55;100.00
47670;BME280;33408;52.062;11.722;2023-03-26T05:37:36;100048.16;;;6.63;100.00
47670;BME280;33408;52.062;11.722;2023-03-26T05:40:04;100046.34;;;6.68;100.00
47670;BME280;33408;52.062;11.722;2023-03-26T05:42:35;100038.50;;;6.77;100.00
47670;BME280;33408;52.062;11.722;2023-03-26T05:45:02;100040.16;;;6.83;100.00
47670;BME280;33408;52.062;11.722;2023-03-26T05:47:28;100036.28;;;7.11;100.00
47670;BME280;33408;52.062;11.722;2023-03-26T05:49:55;100038.78;;;7.16;100.00
47670;BME280;33408;52.062;11.722;2023-03-26T05:52:22;100042.03;;;7.29;100.00
47670;BME280;33408;52.062;11.722;2023-03-26T05:54:50;100036.53;;;7.51;100.00
47670;BME280;33408;52.062;11.722;2023-03-26T05:57:16;100040.81;;;7.50;100.00
47670;BME280;33408;52.062;11.722;2023-03-26T05:59:43;100034.84;;;7.48;100.00
47670;BME280;33408;52.062;11.722;2023-03-26T06:02:10;100031.53;;;7.40;100.00
47670;BME280;33408;52.062;11.722;2023-03-26T06:04:37;100029.53;;;7.57;100.00
47670;BME280;33408;52.062;11.722;2023-03-26T06:07:05;100021.84;;;7.54;100.00
47670;BME280;33408;52.062;11.722;2023-03-26T06:09:34;100027.06;;;7.49;100.00
47670;BME280;33408;52.062;11.722;2023-03-26T06:12:03;100026.94;;;7.59;100.00
47670;BME280;33408;52.062;11.722;2023-03-26T06:14:30;100021.59;;;7.70;100.00
47670;BME280;33408;52.062;11.722;2023-03-26T06:16:57;100023.31;;;7.67;100.00
47670;BME280;33408;52.062;11.722;2023-03-26T06:19:24;100018.97;;;7.71;100.00
47670;BME280;33408;52.062;11.722;2023-03-26T06:21:50;100022.34;;;7.75;100.00
47670;BME280;33408;52.062;11.722;2023-03-26T06:24:17;100024.16;;;7.70;100.00
47670;BME280;33408;52.062;11.722;2023-03-26T06:26:44;100021.34;;;7.82;100.00
47670;BME280;33408;52.062;11.722;2023-03-26T06:29:13;100009.34;;;7.81;100.00
47670;BME280;33408;52.062;11.722;2023-03-26T06:31:40;100021.25;;;7.87;100.00
47670;BME280;33408;52.062;11.722;2023-03-26T06:34:06;100019.34;;;7.96;100.00
47670;BME280;33408;52.062;11.722;2023-03-26T06:36:33;100018.53;;;7.94;100.00
47670;BME280;33408;52.062;11.722;2023-03-26T06:39:00;100017.53;;;8.01;100.00
47670;BME280;33408;52.062;11.722;2023-03-26T06:41:26;100015.94;;;7.96;100.00
47670;BME280;33408;52.062;11.722;2023-03-26T06:43:54;100018.25;;;8.08;100.00
47670;BME280;33408;52.062;11.722;2023-03-26T06:46:22;100014.84;;;8.06;100.00
47670;BME280;33408;52.062;11.722;2023-03-26T06:48:49;100009.63;;;8.09;100.00
47670;BME280;33408;52.062;11.722;2023-03-26T06:51:16;100016.44;;;8.15;100.00
47670;BME280;33408;52.062;11.722;2023-03-26T06:53:43;100014.53;;;8.23;100.00
47670;BME280;33408;52.062;11.722;2023-03-26T06:56:09;100010.13;;;8.28;100.00
47670;BME280;33408;52.062;11.722;2023-03-26T06:58:36;100014.88;;;8.48;100.00
47670;BME280;33408;52.062;11.722;2023-03-26T07:01:03;100010.44;;;8.56;100.00
47670;BME280;33408;52.062;11.722;2023-03-26T07:03:31;100020.69;;;8.58;100.00
47670;BME280;33408;52.062;11.722;2023-03-26T07:05:57;100014.66;;;8.59;100.00
47670;BME280;33408;52.062;11.722;2023-03-26T07:08:24;100013.72;;;8.63;100.00
47670;BME280;33408;52.062;11.722;2023-03-26T07:10:50;100010.06;;;8.72;100.00
47670;BME280;33408;52.062;11.722;2023-03-26T07:13:17;100004.63;;;8.84;100.00
47670;BME280;33408;52.062;11.722;2023-03-26T07:15:44;99997.53;;;8.94;100.00
47670;BME280;33408;52.062;11.722;2023-03-26T07:18:10;100002.22;;;9.12;100.00
47670;BME280;33408;52.062;11.722;2023-03-26T07:20:39;100004.81;;;9.48;100.00
47670;BME280;33408;52.062;11.722;2023-03-26T07:23:08;99990.97;;;9.49;100.00
47670;BME280;33408;52.062;11.722;2023-03-26T07:25:35;99986.03;;;9.42;100.00
47670;BME280;33408;52.062;11.722;2023-03-26T07:28:10;99992.56;;;9.21;100.00
47670;BME280;33408;52.062;11.722;2023-03-26T07:30:46;99986.50;;;8.86;100.00
47670;BME280;33408;52.062;11.722;2023-03-26T07:33:21;99983.47;;;9.04;100.00
47670;BME280;33408;52.062;11.722;2023-03-26T07:35:56;99995.09;;;9.22;100.00
47670;BME280;33408;52.062;11.722;2023-03-26T07:38:32;99996.25;;;9.10;100.00
47670;BME280;33408;52.062;11.722;2023-03-26T07:41:08;99991.81;;;9.16;100.00
47670;BME280;33408;52.062;11.722;2023-03-26T07:46:32;99990.31;;;9.41;100.00
47670;BME280;33408;52.062;11.722;2023-03-26T07:49:01;99990.41;;;9.38;100.00
47670;BME280;33408;52.062;11.722;2023-03-26T07:51:31;99984.91;;;9.51;100.00
47670;BME280;33408;52.062;11.722;2023-03-26T07:53:59;99987.66;;;9.44;100.00
47670;BME280;33408;52.062;11.722;2023-03-26T07:56:32;99982.63;;;9.38;100.00
47670;BME280;33408;52.062;11.722;2023-03-26T07:59:11;99984.34;;;9.39;100.00
47670;BME280;33408;52.062;11.722;2023-03-26T08:01:57;99981.75;;;9.39;100.00
47670;BME280;33408;52.062;11.722;2023-03-26T08:04:47;99972.94;;;9.46;100.00
47670;BME280;33408;52.062;11.722;2023-03-26T08:07:27;99970.75;;;9.64;100.00
47670;BME280;33408;52.062;11.722;2023-03-26T08:10:02;99965.34;;;9.73;100.00
47670;BME280;33408;52.062;11.722;2023-03-26T08:12:37;99976.88;;;9.61;100.00
47670;BME280;33408;52.062;11.722;2023-03-26T08:15:12;99965.81;;;9.88;100.00
47670;BME280;33408;52.062;11.722;2023-03-26T08:17:47;99966.47;;;9.94;100.00
47670;BME280;33408;52.062;11.722;2023-03-26T08:20:24;99970.97;;;9.88;100.00
47670;BME280;33408;52.062;11.722;2023-03-26T08:22:59;99963.00;;;9.64;100.00
47670;BME280;33408;52.062;11.722;2023-03-26T08:25:30;99967.56;;;9.54;100.00
47670;BME280;33408;52.062;11.722;2023-03-26T08:28:16;99968.72;;;9.75;100.00
47670;BME280;33408;52.062;11.722;2023-03-26T08:30:46;99967.72;;;9.81;100.00
47670;BME280;33408;52.062;11.722;2023-03-26T08:33:16;99961.78;;;9.77;100.00
47670;BME280;33408;52.062;11.722;2023-03-26T08:35:43;99968.16;;;9.64;100.00
47670;BME280;33408;52.062;11.722;2023-03-26T08:38:14;99974.16;;;9.66;100.00
47670;BME280;33408;52.062;11.722;2023-03-26T08:43:55;99959.25;;;9.76;100.00
47670;BME280;33408;52.062;11.722;2023-03-26T08:46:55;99961.22;;;9.97;100.00
47670;BME280;33408;52.062;11.722;2023-03-26T08:49:56;99965.31;;;10.36;100.00
47670;BME280;33408;52.062;11.722;2023-03-26T08:52:51;99958.25;;;10.41;100.00
47670;BME280;33408;52.062;11.722;2023-03-26T08:55:39;99954.06;;;10.65;100.00
47670;BME280;33408;52.062;11.722;2023-03-26T09:01:52;99951.13;;;11.03;100.00
47670;BME280;33408;52.062;11.722;2023-03-26T09:04:53;99946.34;;;10.90;100.00
47670;BME280;33408;52.062;11.722;2023-03-26T09:10:53;99946.31;;;10.92;100.00
47670;BME280;33408;52.062;11.722;2023-03-26T09:13:59;99941.81;;;10.97;100.00
47670;BME280;33408;52.062;11.722;2023-03-26T09:17:13;99946.75;;;11.05;100.00
47670;BME280;33408;52.062;11.722;2023-03-26T09:20:17;99953.84;;;11.00;100.00
47670;BME280;33408;52.062;11.722;2023-03-26T09:23:09;99947.19;;;10.64;100.00
47670;BME280;33408;52.062;11.722;2023-03-26T09:26:18;99948.91;;;10.64;100.00
47670;BME280;33408;52.062;11.722;2023-03-26T09:29:16;99941.31;;;10.57;100.00
47670;BME280;33408;52.062;11.722;2023-03-26T09:32:18;99940.81;;;10.46;100.00
47670;BME280;33408;52.062;11.722;2023-03-26T09:35:11;99938.41;;;10.68;100.00
47670;BME280;33408;52.062;11.722;2023-03-26T09:37:55;99933.59;;;10.56;100.00
47670;BME280;33408;52.062;11.722;2023-03-26T09:40:28;99930.50;;;10.45;100.00
47670;BME280;33408;52.062;11.722;2023-03-26T09:43:15;99931.13;;;10.53;100.00
47670;BME280;33408;52.062;11.722;2023-03-26T09:45:59;99932.28;;;10.98;100.00
47670;BME280;33408;52.062;11.722;2023-03-26T09:48:43;99926.38;;;11.44;100.00
47670;BME280;33408;52.062;11.722;2023-03-26T09:51:31;99926.25;;;12.20;100.00
47670;BME280;33408;52.062;11.722;2023-03-26T09:57:19;99910.63;;;12.86;100.00
47670;BME280;33408;52.062;11.722;2023-03-26T10:00:00;99912.75;;;12.56;100.00
47670;BME280;33408;52.062;11.722;2023-03-26T10:02:41;99908.13;;;12.85;100.00
47670;BME280;33408;52.062;11.722;2023-03-26T10:05:37;99911.69;;;12.60;100.00
47670;BME280;33408;52.062;11.722;2023-03-26T10:08:25;99906.56;;;12.81;100.00
47670;BME280;33408;52.062;11.722;2023-03-26T10:11:03;99900.31;;;12.18;100.00
47670;BME280;33408;52.062;11.722;2023-03-26T10:13:39;99913.31;;;13.05;100.00
47670;BME280;33408;52.062;11.722;2023-03-26T10:16:20;99900.44;;;12.82;100.00
47670;BME280;33408;52.062;11.722;2023-03-26T10:19:01;99896.84;;;12.84;100.00
47670;BME280;33408;52.062;11.722;2023-03-26T10:21:35;99897.63;;;12.86;100.00
47670;BME280;33408;52.062;11.722;2023-03-26T10:24:13;99897.38;;;12.92;100.00
47670;BME280;33408;52.062;11.722;2023-03-26T10:26:56;99885.91;;;13.19;100.00
47670;BME280;33408;52.062;11.722;2023-03-26T10:29:43;99883.84;;;13.85;100.00
47670;BME280;33408;52.062;11.722;2023-03-26T10:32:21;99886.88;;;13.37;100.00
47670;BME280;33408;52.062;11.722;2023-03-26T10:35:07;99884.25;;;13.95;100.00
47670;BME280;33408;52.062;11.722;2023-03-26T10:37:43;99875.59;;;13.57;100.00
47670;BME280;33408;52.062;11.722;2023-03-26T10:40:19;99882.63;;;12.06;100.00
47670;BME280;33408;52.062;11.722;2023-03-26T10:43:13;99875.72;;;12.71;100.00
47670;BME280;33408;52.062;11.722;2023-03-26T10:48:54;99874.88;;;12.71;100.00
47670;BME280;33408;52.062;11.722;2023-03-26T10:51:46;99863.94;;;12.63;100.00
47670;BME280;33408;52.062;11.722;2023-03-26T10:54:25;99859.06;;;13.17;100.00
47670;BME280;33408;52.062;11.722;2023-03-26T10:56:55;99861.16;;;13.49;100.00
47670;BME280;33408;52.062;11.722;2023-03-26T10:59:24;99854.00;;;13.13;100.00
47670;BME280;33408;52.062;11.722;2023-03-26T11:01:58;99859.59;;;13.25;100.00
47670;BME280;33408;52.062;11.722;2023-03-26T11:04:36;99853.56;;;14.02;100.00
47670;BME280;33408;52.062;11.722;2023-03-26T11:07:14;99837.72;;;13.29;100.00
47670;BME280;33408;52.062;11.722;2023-03-26T11:09:48;99837.56;;;13.72;100.00
47670;BME280;33408;52.062;11.722;2023-03-26T11:12:23;99836.22;;;13.04;100.00
47670;BME280;33408;52.062;11.722;2023-03-26T11:14:57;99844.44;;;12.73;100.00
47670;BME280;33408;52.062;11.722;2023-03-26T11:17:36;99849.34;;;13.01;100.00
47670;BME280;33408;52.062;11.722;2023-03-26T11:20:13;99851.03;;;12.39;100.00
47670;BME280;33408;52.062;11.722;2023-03-26T11:22:53;99854.34;;;13.06;100.00
47670;BME280;33408;52.062;11.722;2023-03-26T11:25:29;99845.88;;;13.21;100.00
47670;BME280;33408;52.062;11.722;2023-03-26T11:28:08;99850.19;;;12.61;100.00
47670;BME280;33408;52.062;11.722;2023-03-26T11:30:41;99842.22;;;12.64;100.00
47670;BME280;33408;52.062;11.722;2023-03-26T11:33:17;99842.75;;;12.51;99.34
47670;BME280;33408;52.062;11.722;2023-03-26T11:35:47;99841.06;;;12.06;100.00
47670;BME280;33408;52.062;11.722;2023-03-26T11:38:17;99843.47;;;12.33;100.00
47670;BME280;33408;52.062;11.722;2023-03-26T11:40:49;99831.50;;;12.71;100.00
47670;BME280;33408;52.062;11.722;2023-03-26T11:43:23;99835.13;;;12.25;100.00
47670;BME280;33408;52.062;11.722;2023-03-26T11:45:51;99833.88;;;12.35;100.00
47670;BME280;33408;52.062;11.722;2023-03-26T11:48:22;99833.19;;;12.30;100.00
47670;BME280;33408;52.062;11.722;2023-03-26T11:50:54;99830.19;;;12.18;100.00
47670;BME280;33408;52.062;11.722;2023-03-26T11:53:26;99829.56;;;12.12;100.00
47670;BME280;33408;52.062;11.722;2023-03-26T11:55:59;99830.97;;;11.75;100.00
47670;BME280;33408;52.062;11.722;2023-03-26T11:58:31;99826.09;;;11.89;100.00
47670;BME280;33408;52.062;11.722;2023-03-26T12:01:03;99824.25;;;11.93;100.00
47670;BME280;33408;52.062;11.722;2023-03-26T12:03:30;99824.88;;;11.99;100.00
47670;BME280;33408;52.062;11.722;2023-03-26T12:05:59;99825.41;;;12.30;100.00
47670;BME280;33408;52.062;11.722;2023-03-26T12:08:30;99828.13;;;12.04;100.00
47670;BME280;33408;52.062;11.722;2023-03-26T12:11:01;99826.44;;;12.48;100.00
47670;BME280;33408;52.062;11.722;2023-03-26T12:13:33;99822.56;;;12.14;100.00
47670;BME280;33408;52.062;11.722;2023-03-26T12:16:07;99822.38;;;12.18;100.00
47670;BME280;33408;52.062;11.722;2023-03-26T12:18:36;99819.25;;;12.32;100.00
47670;BME280;33408;52.062;11.722;2023-03-26T12:21:07;99823.00;;;12.68;100.00
47670;BME280;33408;52.062;11.722;2023-03-26T12:23:37;99807.22;;;12.93;100.00
47670;BME280;33408;52.062;11.722;2023-03-26T12:26:13;99811.56;;;13.32;100.00
47670;BME280;33408;52.062;11.722;2023-03-26T12:28:46;99813.19;;;12.95;98.63
47670;BME280;33408;52.062;11.722;2023-03-26T12:31:13;99807.09;;;13.36;95.85
47670;BME280;33408;52.062;11.722;2023-03-26T12:33:44;99800.78;;;13.41;98.55
47670;BME280;33408;52.062;11.722;2023-03-26T12:36:19;99805.22;;;13.19;91.67
47670;BME280;33408;52.062;11.722;2023-03-26T12:38:47;99796.69;;;13.36;90.45
47670;BME280;33408;52.062;11.722;2023-03-26T12:41:15;99797.31;;;13.98;90.04
47670;BME280;33408;52.062;11.722;2023-03-26T12:43:44;99795.13;;;13.70;93.12
47670;BME280;33408;52.062;11.722;2023-03-26T12:46:23;99793.53;;;13.67;94.26
47670;BME280;33408;52.062;11.722;2023-03-26T12:48:55;99797.22;;;13.99;90.41
47670;BME280;33408;52.062;11.722;2023-03-26T12:51:38;99792.59;;;13.49;89.60
47670;BME280;33408;52.062;11.722;2023-03-26T12:54:35;99787.41;;;13.68;85.81
47670;BME280;33408;52.062;11.722;2023-03-26T12:57:17;99790.19;;;13.82;85.49
47670;BME280;33408;52.062;11.722;2023-03-26T13:00:17;99788.97;;;13.53;85.92
47670;BME280;33408;52.062;11.722;2023-03-26T13:03:06;99789.41;;;13.99;82.84
47670;BME280;33408;52.062;11.722;2023-03-26T13:05:41;99781.88;;;13.93;82.02
47670;BME280;33408;52.062;11.722;2023-03-26T13:08:26;99785.72;;;13.48;90.03
47670;BME280;33408;52.062;11.722;2023-03-26T13:11:03;99785.84;;;13.45;87.66
47670;BME280;33408;52.062;11.722;2023-03-26T13:14:00;99771.34;;;13.58;90.16
47670;BME280;33408;52.062;11.722;2023-03-26T13:16:35;99780.25;;;13.54;90.76
47670;BME280;33408;52.062;11.722;2023-03-26T13:19:08;99768.13;;;13.72;86.63
47670;BME280;33408;52.062;11.722;2023-03-26T13:21:46;99773.03;;;14.15;87.72
47670;BME280;33408;52.062;11.722;2023-03-26T13:24:32;99768.75;;;13.58;85.37
47670;BME280;33408;52.062;11.722;2023-03-26T13:27:20;99766.28;;;14.11;84.73
47670;BME280;33408;52.062;11.722;2023-03-26T13:29:56;99753.34;;;14.27;83.42